This is the latest recevied weather packets stored in our database for station/object EA3KZ-1. If no packets are shown the sender has not sent any weather packets the latest 10 day(s).
| Time | Temp. | Humidity | Pressure | Rain* | Wind** | Luminosity | Snow |
|---|---|---|---|---|---|---|---|
| 1777309220 | 20.56° C | 53% | 1012.7 hPa | 0 mm | - | - | - |
| 1777308618 | 20.56° C | 51% | 1012.6 hPa | 0 mm | - | - | - |
| 1777308015 | 21.11° C | 50% | 1012.6 hPa | 0 mm | - | - | - |
| 1777307473 | 21.11° C | 49% | 1012.7 hPa | 0 mm | - | - | - |
| 1777306870 | 21.11° C | 51% | 1012.6 hPa | 0 mm | - | - | - |
| 1777306268 | 21.67° C | 51% | 1012.6 hPa | 0 mm | - | - | - |
| 1777305665 | 22.22° C | 50% | 1012.8 hPa | 0 mm | - | - | - |
| 1777305062 | 22.78° C | 50% | 1012.8 hPa | 0 mm | - | - | - |
| 1777304460 | 22.78° C | 51% | 1012.7 hPa | 0 mm | - | - | - |
| 1777303857 | 22.22° C | 53% | 1012.6 hPa | 0 mm | - | - | - |
| 1777303255 | 22.22° C | 53% | 1012.6 hPa | 0 mm | - | - | - |
| 1777302652 | 22.78° C | 53% | 1012.6 hPa | 0 mm | - | - | - |
| 1777302049 | 22.22° C | 54% | 1012.7 hPa | 0 mm | - | - | - |
| 1777301447 | 22.78° C | 54% | 1012.7 hPa | 0 mm | - | - | - |
| 1777300844 | 23.33° C | 53% | 1012.7 hPa | 0 mm | - | - | - |
| 1777300241 | 23.89° C | 52% | 1012.7 hPa | 0 mm | - | - | - |
| 1777299639 | 23.89° C | 51% | 1012.7 hPa | 0 mm | - | - | - |
| 1777299036 | 22.78° C | 54% | 1012.7 hPa | 0 mm | - | - | - |
| 1777298433 | 23.33° C | 52% | 1013 hPa | 0 mm | - | - | - |
| 1777297831 | 22.78° C | 53% | 1013.2 hPa | 0 mm | - | - | - |
| 1777297228 | 23.33° C | 53% | 1013.2 hPa | 0 mm | - | - | - |
| 1777296625 | 23.33° C | 52% | 1013.4 hPa | 0 mm | - | - | - |
| 1777296022 | 23.33° C | 52% | 1013.5 hPa | 0 mm | - | - | - |
| 1777295420 | 22.22° C | 54% | 1013.6 hPa | 0 mm | - | - | - |
| 1777294817 | 23.33° C | 53% | 1013.5 hPa | 0 mm | - | - | - |
* Rain latest hour (hover to see other rain measurements)
** Current wind speed in m/s (hover to see current wind gust speed)